Time;durP1;ratioP1;P1;durP2;ratioP2;P2;SDS_P1;SDS_P2;PMS_P1;PMS_P2;Temp;Humidity;BMP_temperature;BMP_pressure;BME280_temperature;BME280_humidity;BME280_pressure;Samples;Min_cycle;Max_cycle;Signal;HPM_P1;HPM_P2
2022/08/07 00:00:44;;;;;;;5.30;5.00;;;14.20;99.90;;;;;;5029890;28;20183;-62
2022/08/07 00:03:10;;;;;;;4.97;4.67;;;14.10;99.90;;;;;;5030640;28;20183;-62
2022/08/07 00:05:36;;;;;;;5.37;5.07;;;14.10;99.90;;;;;;5030009;28;20414;-62
2022/08/07 00:08:02;;;;;;;5.07;4.77;;;14.00;99.90;;;;;;5029892;28;20214;-62
2022/08/07 00:10:29;;;;;;;5.27;4.87;;;13.90;99.90;;;;;;5030400;28;20732;-62
2022/08/07 00:12:56;;;;;;;5.20;4.90;;;13.90;99.90;;;;;;5030267;28;20433;-62
2022/08/07 00:15:24;;;;;;;4.67;4.47;;;13.90;99.90;;;;;;5030425;28;20426;-62
2022/08/07 00:17:50;;;;;;;5.20;4.90;;;13.80;99.90;;;;;;5030239;28;20493;-62
2022/08/07 00:20:15;;;;;;;4.60;4.30;;;13.80;99.90;;;;;;5030374;28;20453;-62
2022/08/07 00:22:41;;;;;;;4.80;4.50;;;13.70;99.90;;;;;;5030040;28;20442;-61
2022/08/07 00:25:08;;;;;;;5.13;4.53;;;13.70;99.90;;;;;;5029190;28;20186;-62
2022/08/07 00:27:34;;;;;;;5.20;4.43;;;13.60;99.90;;;;;;5029823;28;20275;-62
2022/08/07 00:30:01;;;;;;;4.90;4.60;;;13.60;99.90;;;;;;5030111;28;20461;-62
2022/08/07 00:32:26;;;;;;;6.07;4.20;;;13.50;99.90;;;;;;5028609;28;20481;-62
2022/08/07 00:34:52;;;;;;;4.80;4.50;;;13.50;99.90;;;;;;5030148;28;20896;-62
2022/08/07 00:37:18;;;;;;;4.30;4.10;;;13.50;99.90;;;;;;5029719;28;20546;-62
2022/08/07 00:39:44;;;;;;;4.50;4.20;;;13.40;99.90;;;;;;5030183;28;20479;-61
2022/08/07 00:42:10;;;;;;;4.67;4.40;;;13.40;99.90;;;;;;5030652;28;20417;-62
2022/08/07 00:44:36;;;;;;;4.20;4.00;;;13.40;99.90;;;;;;5030621;28;21412;-62
2022/08/07 00:47:03;;;;;;;4.67;4.37;;;13.40;99.90;;;;;;5031961;28;20198;-62
2022/08/07 00:49:29;;;;;;;5.07;4.60;;;13.40;99.90;;;;;;5031331;28;20471;-63
2022/08/07 00:51:55;;;;;;;4.60;4.40;;;13.40;99.90;;;;;;5031516;28;20422;-63
2022/08/07 00:54:21;;;;;;;4.77;4.37;;;13.30;99.90;;;;;;5031248;28;20551;-62
2022/08/07 00:56:48;;;;;;;5.20;4.90;;;13.30;99.90;;;;;;5030358;28;20241;-61
2022/08/07 00:59:13;;;;;;;5.77;5.27;;;13.30;99.90;;;;;;5031167;28;20421;-57
2022/08/07 01:01:39;;;;;;;6.00;5.13;;;13.30;99.90;;;;;;5031071;28;20421;-63
2022/08/07 01:04:05;;;;;;;5.90;5.50;;;13.30;99.90;;;;;;5031047;28;20183;-62
2022/08/07 01:06:31;;;;;;;5.87;5.40;;;13.30;99.90;;;;;;5030365;28;20824;-62
2022/08/07 01:08:59;;;;;;;5.60;5.20;;;13.20;99.90;;;;;;5030682;28;20437;-62
2022/08/07 01:11:25;;;;;;;5.30;5.00;;;13.20;99.90;;;;;;5031008;28;20363;-63
2022/08/07 01:13:50;;;;;;;5.07;4.77;;;13.10;99.90;;;;;;5031115;28;20921;-62
2022/08/07 01:16:16;;;;;;;4.70;4.40;;;13.10;99.90;;;;;;5029655;28;20421;-62
2022/08/07 01:18:42;;;;;;;4.90;4.60;;;13.20;99.90;;;;;;5031136;28;20209;-62
2022/08/07 01:21:16;;;;;;;4.97;4.60;;;13.10;99.90;;;;;;5030894;28;20838;-62
2022/08/07 01:23:44;;;;;;;5.20;4.83;;;13.10;99.90;;;;;;5022500;28;20190;-62
2022/08/07 01:26:12;;;;;;;4.83;4.53;;;13.00;99.90;;;;;;5030317;28;21089;-61
2022/08/07 01:28:40;;;;;;;5.03;4.73;;;13.00;99.90;;;;;;5029670;28;20430;-62
2022/08/07 01:31:06;;;;;;;5.17;4.87;;;13.00;99.90;;;;;;5030826;28;20420;-62
2022/08/07 01:33:32;;;;;;;4.87;4.50;;;12.90;99.90;;;;;;5029818;28;20489;-61
2022/08/07 01:35:59;;;;;;;4.60;4.30;;;12.90;99.90;;;;;;5029567;28;20493;-62
2022/08/07 01:38:25;;;;;;;5.33;4.93;;;12.90;99.90;;;;;;5030654;28;20215;-62
2022/08/07 01:40:53;;;;;;;5.57;5.20;;;12.80;99.90;;;;;;5033187;28;20524;-62
2022/08/07 01:43:19;;;;;;;5.60;5.10;;;12.80;99.90;;;;;;5032514;28;20421;-62
2022/08/07 01:45:45;;;;;;;5.43;4.90;;;12.90;99.90;;;;;;5033229;28;20414;-62
2022/08/07 01:48:10;;;;;;;4.77;4.47;;;12.80;99.90;;;;;;5033132;28;20278;-62
2022/08/07 01:50:38;;;;;;;4.30;4.10;;;12.70;99.90;;;;;;5032695;28;20512;-62
2022/08/07 01:53:05;;;;;;;4.40;4.10;;;12.60;99.90;;;;;;5032180;28;20191;-61
2022/08/07 01:55:41;;;;;;;4.63;4.33;;;12.50;99.90;;;;;;5032045;28;20887;-61
2022/08/07 01:58:09;;;;;;;4.57;4.27;;;12.50;99.90;;;;;;5032874;28;21086;-62
2022/08/07 02:00:38;;;;;;;4.10;3.90;;;12.50;99.90;;;;;;5031603;28;20766;-62
2022/08/07 02:03:09;;;;;;;5.70;3.90;;;12.50;99.90;;;;;;5031974;28;20768;-61
2022/08/07 02:05:50;;;;;;;4.37;4.17;;;12.40;99.90;;;;;;5032812;28;20419;-61
2022/08/07 02:08:19;;;;;;;4.40;4.10;;;12.40;99.90;;;;;;5032160;28;20448;-62
2022/08/07 02:10:48;;;;;;;4.20;4.00;;;12.40;99.90;;;;;;5032064;28;20953;-62
2022/08/07 02:13:51;;;;;;;4.13;3.93;;;12.40;99.90;;;;;;5031796;28;20430;-61
2022/08/07 02:16:18;;;;;;;4.53;4.23;;;12.30;99.90;;;;;;5031703;28;20471;-62
2022/08/07 02:18:46;;;;;;;4.20;3.90;;;12.30;99.90;;;;;;5032537;28;20539;-62
2022/08/07 02:21:12;;;;;;;4.10;3.90;;;12.20;99.90;;;;;;5032516;28;20483;-62
2022/08/07 02:23:39;;;;;;;4.20;3.97;;;12.20;99.90;;;;;;5031430;28;20438;-61
2022/08/07 02:26:06;;;;;;;4.67;4.37;;;12.20;99.90;;;;;;5031656;28;20186;-61
2022/08/07 02:28:35;;;;;;;3.70;3.50;;;12.20;99.90;;;;;;5031398;28;20449;-61
2022/08/07 02:31:02;;;;;;;4.17;3.87;;;12.10;99.90;;;;;;5031566;28;20421;-61
2022/08/07 02:33:29;;;;;;;4.30;4.00;;;12.10;99.90;;;;;;5032033;28;20473;-61
2022/08/07 02:35:56;;;;;;;3.83;3.60;;;12.00;99.90;;;;;;5032540;28;20755;-62
2022/08/07 02:38:31;;;;;;;4.37;4.03;;;12.00;99.90;;;;;;5032350;28;20461;-61
2022/08/07 02:40:59;;;;;;;4.07;3.77;;;12.00;99.90;;;;;;5031936;28;20519;-60
2022/08/07 02:43:26;;;;;;;3.97;3.77;;;11.90;99.90;;;;;;5032217;28;21006;-59
2022/08/07 02:45:53;;;;;;;3.73;3.53;;;11.90;99.90;;;;;;5031225;28;20418;-61
2022/08/07 02:48:19;;;;;;;3.63;3.43;;;11.90;99.90;;;;;;5030630;28;20502;-61
2022/08/07 02:50:47;;;;;;;3.73;3.50;;;11.90;99.90;;;;;;5030735;28;20464;-61
2022/08/07 02:53:20;;;;;;;3.83;3.53;;;11.90;99.90;;;;;;5030439;28;20553;-61
2022/08/07 02:55:48;;;;;;;3.83;3.53;;;11.80;99.90;;;;;;5030771;28;20470;-61
2022/08/07 02:58:19;;;;;;;3.77;3.57;;;11.80;99.90;;;;;;5030813;28;20476;-59
2022/08/07 03:00:50;;;;;;;3.80;3.50;;;11.80;99.90;;;;;;5031840;28;20763;-61
2022/08/07 03:03:17;;;;;;;3.90;3.60;;;11.70;99.90;;;;;;5030211;28;20502;-61
2022/08/07 03:05:44;;;;;;;4.33;4.03;;;11.70;99.90;;;;;;5031614;28;20483;-61
2022/08/07 03:08:10;;;;;;;4.00;3.70;;;11.70;99.90;;;;;;5031686;28;20453;-58
2022/08/07 03:10:37;;;;;;;3.90;3.60;;;11.70;99.90;;;;;;5030020;28;20406;-61
2022/08/07 03:13:03;;;;;;;4.10;3.80;;;11.60;99.90;;;;;;5031699;28;20413;-61
2022/08/07 03:15:29;;;;;;;5.03;4.07;;;11.60;99.90;;;;;;5031279;28;20405;-56
2022/08/07 03:17:55;;;;;;;3.90;3.60;;;11.60;99.90;;;;;;5029398;28;20464;-60
2022/08/07 03:20:22;;;;;;;4.17;3.77;;;11.60;99.90;;;;;;5031533;28;20990;-61
2022/08/07 03:22:49;;;;;;;4.13;3.73;;;11.60;99.90;;;;;;5031620;28;20409;-57
2022/08/07 03:25:17;;;;;;;4.30;4.00;;;11.50;99.90;;;;;;5031192;28;20417;-62
2022/08/07 03:27:44;;;;;;;4.20;3.90;;;11.50;99.90;;;;;;5030869;28;20425;-61
2022/08/07 03:30:10;;;;;;;3.83;3.53;;;11.50;99.90;;;;;;5031423;28;20967;-61
2022/08/07 03:32:39;;;;;;;3.73;3.43;;;11.40;99.90;;;;;;5030090;28;20481;-61
2022/08/07 03:35:10;;;;;;;3.80;3.60;;;11.40;99.90;;;;;;5030353;28;20449;-62
2022/08/07 03:37:37;;;;;;;3.77;3.50;;;11.40;99.90;;;;;;5031142;28;20469;-61
2022/08/07 03:40:04;;;;;;;4.63;4.23;;;11.40;99.90;;;;;;5030153;28;20434;-59
2022/08/07 03:42:33;;;;;;;4.10;3.80;;;11.30;99.90;;;;;;5030859;28;20432;-60
2022/08/07 03:44:59;;;;;;;4.37;4.07;;;11.30;99.90;;;;;;5029221;28;20885;-60
2022/08/07 03:47:26;;;;;;;3.60;3.40;;;11.30;99.90;;;;;;5030364;28;20448;-61
2022/08/07 03:49:52;;;;;;;4.37;4.03;;;11.20;99.90;;;;;;5030011;28;20186;-60
2022/08/07 03:52:21;;;;;;;3.93;3.63;;;11.20;99.90;;;;;;5030922;28;20436;-60
2022/08/07 03:54:46;;;;;;;3.90;3.67;;;11.20;99.90;;;;;;5030645;28;20546;-61
2022/08/07 03:57:14;;;;;;;3.73;3.43;;;11.10;99.90;;;;;;5029760;28;20468;-59
2022/08/07 03:59:40;;;;;;;3.50;3.30;;;11.20;99.90;;;;;;5030972;28;20262;-57
2022/08/07 04:02:07;;;;;;;4.20;3.80;;;11.20;99.90;;;;;;5028980;28;20478;-61
2022/08/07 04:04:33;;;;;;;3.93;3.70;;;11.10;99.90;;;;;;5030509;28;20421;-62
2022/08/07 04:06:59;;;;;;;3.80;3.50;;;11.10;99.90;;;;;;5030553;28;20426;-61
2022/08/07 04:09:26;;;;;;;4.10;3.80;;;11.20;99.90;;;;;;5030669;28;20453;-57
2022/08/07 04:11:52;;;;;;;4.17;3.87;;;11.10;99.90;;;;;;5030565;28;20225;-61
2022/08/07 04:14:19;;;;;;;3.93;3.67;;;11.10;99.90;;;;;;5029421;28;20418;-56
2022/08/07 04:16:47;;;;;;;3.90;3.60;;;11.20;99.90;;;;;;5029546;28;20470;-59
2022/08/07 04:19:14;;;;;;;3.90;3.60;;;11.10;99.90;;;;;;5030399;28;20732;-61
2022/08/07 04:21:40;;;;;;;3.90;3.60;;;11.10;99.90;;;;;;5029994;28;20425;-60
2022/08/07 04:24:09;;;;;;;3.70;3.50;;;11.20;99.90;;;;;;5030136;28;20505;-62
2022/08/07 04:26:37;;;;;;;4.10;3.80;;;11.20;99.90;;;;;;5030330;28;20532;-61
2022/08/07 04:29:03;;;;;;;3.83;3.53;;;11.20;99.90;;;;;;5029781;28;20872;-62
2022/08/07 04:31:29;;;;;;;3.87;3.57;;;11.20;99.90;;;;;;5028265;28;20421;-61
2022/08/07 04:33:55;;;;;;;4.13;3.73;;;11.20;99.90;;;;;;5029858;28;20427;-61
2022/08/07 04:36:21;;;;;;;3.83;3.53;;;11.30;99.90;;;;;;5029939;28;20413;-62
2022/08/07 04:38:46;;;;;;;3.73;3.43;;;11.30;99.90;;;;;;5029926;28;20767;-61
2022/08/07 04:41:12;;;;;;;3.60;3.40;;;11.30;99.90;;;;;;5029168;28;20432;-61
2022/08/07 04:43:39;;;;;;;5.00;3.87;;;11.30;99.90;;;;;;5029589;28;20700;-61
2022/08/07 04:46:22;;;;;;;4.53;3.73;;;11.30;99.90;;;;;;5029566;28;20186;-61
2022/08/07 04:49:07;;;;;;;3.43;3.23;;;11.20;99.90;;;;;;5017910;28;20412;-61
2022/08/07 04:51:47;;;;;;;4.27;3.97;;;11.30;99.90;;;;;;5029246;28;20474;-62
2022/08/07 04:54:26;;;;;;;4.43;4.03;;;11.30;99.90;;;;;;5029468;28;20410;-61
2022/08/07 04:57:12;;;;;;;3.80;3.57;;;11.30;99.90;;;;;;5029657;28;20543;-61
2022/08/07 05:00:06;;;;;;;3.90;3.60;;;11.40;99.90;;;;;;5029528;28;20414;-61
2022/08/07 05:02:52;;;;;;;4.00;3.70;;;11.40;99.90;;;;;;5029503;28;20440;-61
2022/08/07 05:05:46;;;;;;;3.73;3.43;;;11.40;99.90;;;;;;5029534;28;20911;-61
2022/08/07 05:08:15;;;;;;;3.80;3.60;;;11.40;99.90;;;;;;5027909;28;20487;-54
2022/08/07 05:10:47;;;;;;;4.53;4.23;;;11.50;99.90;;;;;;5029707;28;20402;-61
2022/08/07 05:13:35;;;;;;;4.33;3.93;;;11.50;99.90;;;;;;5026165;28;20437;-61
2022/08/07 05:16:04;;;;;;;4.30;3.40;;;11.60;99.90;;;;;;5024543;28;20438;-62
2022/08/07 05:18:34;;;;;;;4.00;3.70;;;11.60;99.90;;;;;;5024597;28;20523;-61
2022/08/07 05:21:02;;;;;;;3.93;3.53;;;11.70;99.90;;;;;;5028702;28;20441;-61
2022/08/07 05:23:44;;;;;;;4.10;3.80;;;11.70;99.90;;;;;;5028496;28;20426;-62
2022/08/07 05:26:13;;;;;;;4.17;3.87;;;11.80;99.90;;;;;;5029041;28;20418;-61
2022/08/07 05:28:40;;;;;;;3.80;3.60;;;11.90;99.90;;;;;;5029572;28;20417;-60
2022/08/07 05:31:07;;;;;;;3.90;3.60;;;11.90;99.90;;;;;;5028041;28;20560;-61
2022/08/07 05:33:35;;;;;;;4.27;3.97;;;12.00;99.90;;;;;;5029138;28;20461;-62
2022/08/07 05:36:01;;;;;;;4.10;3.80;;;12.00;99.90;;;;;;5028423;28;20432;-62
2022/08/07 05:38:27;;;;;;;4.43;4.03;;;12.10;99.90;;;;;;5029252;28;20464;-62
2022/08/07 05:40:54;;;;;;;4.30;4.00;;;12.10;99.90;;;;;;5029353;28;20426;-62
2022/08/07 05:43:20;;;;;;;6.50;3.63;;;12.20;99.90;;;;;;5029333;28;20418;-63
2022/08/07 05:45:47;;;;;;;4.83;4.13;;;12.30;99.90;;;;;;5028866;28;20464;-62
2022/08/07 05:48:13;;;;;;;4.73;4.23;;;12.50;99.90;;;;;;5028435;28;20509;-62
2022/08/07 05:50:40;;;;;;;4.63;4.33;;;12.60;99.90;;;;;;5029036;28;20417;-61
2022/08/07 05:53:06;;;;;;;4.23;3.93;;;12.60;99.90;;;;;;5026861;28;20796;-62
2022/08/07 05:55:34;;;;;;;4.50;4.20;;;12.60;99.90;;;;;;5029123;28;20445;-62
2022/08/07 05:58:01;;;;;;;4.30;4.00;;;12.70;99.90;;;;;;5028884;28;20289;-62
2022/08/07 06:00:29;;;;;;;5.10;4.80;;;12.70;99.90;;;;;;5029023;28;20476;-62
2022/08/07 06:02:58;;;;;;;4.60;4.20;;;12.80;99.90;;;;;;5028685;28;20958;-59
2022/08/07 06:05:29;;;;;;;4.03;3.73;;;12.80;99.90;;;;;;5029030;28;20483;-62
2022/08/07 06:08:00;;;;;;;5.30;4.73;;;13.00;99.90;;;;;;5028639;28;20473;-61
2022/08/07 06:10:27;;;;;;;4.53;4.13;;;13.10;99.90;;;;;;5029120;28;20405;-62
2022/08/07 06:12:54;;;;;;;4.20;4.00;;;13.20;99.90;;;;;;5028774;28;20537;-62
2022/08/07 06:15:21;;;;;;;4.23;3.93;;;13.30;99.90;;;;;;5028257;28;20512;-62
2022/08/07 06:17:47;;;;;;;4.13;3.93;;;13.40;99.90;;;;;;5027951;28;20224;-61
2022/08/07 06:20:13;;;;;;;4.53;4.33;;;13.50;99.90;;;;;;5028057;28;20445;-62
2022/08/07 06:22:43;;;;;;;4.07;3.83;;;13.60;99.90;;;;;;5028776;28;20427;-62
2022/08/07 06:25:09;;;;;;;4.43;4.07;;;13.70;99.90;;;;;;5029526;28;20525;-63
2022/08/07 06:27:34;;;;;;;4.57;4.27;;;13.70;99.90;;;;;;5032450;28;20771;-62
2022/08/07 06:30:00;;;;;;;4.43;4.13;;;13.80;99.90;;;;;;5031994;28;20202;-62
2022/08/07 06:32:26;;;;;;;5.20;4.80;;;13.90;99.90;;;;;;5032103;28;20241;-62
2022/08/07 06:34:51;;;;;;;4.70;4.40;;;13.90;99.90;;;;;;5032316;28;20292;-62
2022/08/07 06:37:17;;;;;;;4.67;4.27;;;13.90;99.90;;;;;;5032552;28;20210;-62
2022/08/07 06:39:43;;;;;;;5.10;4.73;;;14.00;99.90;;;;;;5031241;28;20191;-62
2022/08/07 06:42:35;;;;;;;4.67;4.33;;;14.20;99.90;;;;;;5031343;28;20182;-62
2022/08/07 06:45:10;;;;;;;4.83;4.53;;;14.40;99.90;;;;;;5030178;28;20313;-57
2022/08/07 06:47:36;;;;;;;4.40;4.10;;;14.50;99.90;;;;;;5029666;28;20448;-60
2022/08/07 06:50:03;;;;;;;4.70;4.40;;;14.60;99.90;;;;;;5031101;28;20536;-61
2022/08/07 06:52:32;;;;;;;4.50;4.20;;;14.70;99.90;;;;;;5031588;28;20572;-61
2022/08/07 06:54:59;;;;;;;4.50;4.20;;;14.80;99.90;;;;;;5032018;28;20410;-60
2022/08/07 06:57:25;;;;;;;5.20;4.70;;;15.00;99.90;;;;;;5030942;28;20527;-61
2022/08/07 06:59:54;;;;;;;5.10;4.77;;;15.10;99.90;;;;;;5032075;28;20426;-61
2022/08/07 07:02:21;;;;;;;4.40;4.20;;;15.20;99.90;;;;;;5031855;28;20414;-61
2022/08/07 07:04:47;;;;;;;5.50;4.93;;;15.30;99.90;;;;;;5031756;28;20405;-60
2022/08/07 07:07:14;;;;;;;5.00;4.40;;;15.70;99.50;;;;;;5032076;28;20425;-60
2022/08/07 07:09:48;;;;;;;4.30;4.00;;;15.90;98.60;;;;;;5031739;28;20163;-61
2022/08/07 07:12:29;;;;;;;4.93;4.63;;;15.90;97.80;;;;;;5012331;28;20461;-61
2022/08/07 07:15:03;;;;;;;5.00;4.70;;;16.00;97.70;;;;;;5017766;28;20528;-60
2022/08/07 07:17:46;;;;;;;4.80;4.50;;;16.20;97.00;;;;;;5030251;28;20466;-61
2022/08/07 07:20:24;;;;;;;4.90;4.60;;;16.40;96.00;;;;;;5030553;28;20421;-61
2022/08/07 07:22:51;;;;;;;5.20;4.90;;;16.60;94.70;;;;;;5031359;28;20422;-62
2022/08/07 07:25:18;;;;;;;5.40;5.10;;;16.70;94.40;;;;;;5029931;28;20829;-62
2022/08/07 07:27:55;;;;;;;5.50;5.10;;;16.80;93.90;;;;;;5031371;28;20508;-62
2022/08/07 07:30:26;;;;;;;5.70;5.20;;;16.90;93.10;;;;;;5031343;28;20506;-62
2022/08/07 07:32:53;;;;;;;5.70;5.33;;;17.10;92.20;;;;;;5030670;28;20892;-62
2022/08/07 07:35:20;;;;;;;4.60;4.30;;;17.50;90.40;;;;;;5030712;28;20436;-57
2022/08/07 07:37:48;;;;;;;5.43;5.13;;;17.60;89.90;;;;;;5030954;28;20819;-61
2022/08/07 07:40:19;;;;;;;4.93;4.63;;;17.80;88.10;;;;;;5031176;28;20505;-61
2022/08/07 07:42:49;;;;;;;5.40;4.97;;;17.80;88.50;;;;;;5030501;28;20428;-62
2022/08/07 07:45:17;;;;;;;5.27;4.87;;;17.80;87.20;;;;;;5030887;28;20765;-61
2022/08/07 07:47:44;;;;;;;5.50;5.13;;;18.10;85.10;;;;;;5029218;28;20443;-62
2022/08/07 07:50:12;;;;;;;4.67;4.47;;;18.20;84.30;;;;;;5030337;28;20533;-62
2022/08/07 07:52:40;;;;;;;5.13;4.73;;;18.30;84.10;;;;;;5017875;28;20798;-59
2022/08/07 07:55:08;;;;;;;4.90;4.47;;;18.50;82.80;;;;;;5031090;28;20426;-61
2022/08/07 07:57:34;;;;;;;5.17;4.70;;;18.70;82.00;;;;;;5029781;28;20777;-61
2022/08/07 08:00:02;;;;;;;5.23;4.93;;;18.90;81.80;;;;;;5030732;28;20421;-62
2022/08/07 08:02:29;;;;;;;5.17;4.83;;;19.00;78.00;;;;;;5029501;28;20866;-61
2022/08/07 08:04:55;;;;;;;5.27;5.00;;;19.20;78.20;;;;;;5030940;28;20405;-56
2022/08/07 08:07:23;;;;;;;7.23;5.07;;;19.40;77.60;;;;;;5030918;28;20441;-55
2022/08/07 08:09:52;;;;;;;5.10;4.70;;;19.60;78.10;;;;;;5029921;28;20444;-53
2022/08/07 08:12:18;;;;;;;5.07;4.77;;;19.70;76.10;;;;;;5010912;28;20409;-55
2022/08/07 08:14:44;;;;;;;5.30;5.00;;;19.80;73.80;;;;;;5017239;28;20437;-57
2022/08/07 08:17:12;;;;;;;5.50;5.00;;;20.10;72.40;;;;;;5025974;28;20978;-49
2022/08/07 08:19:42;;;;;;;4.53;4.33;;;20.30;68.60;;;;;;5029932;28;20453;-55
2022/08/07 08:27:41;;;;;;;4.83;4.43;;;20.80;61.20;;;;;;5030380;28;20397;-51
2022/08/07 08:30:09;;;;;;;5.67;4.90;;;20.90;62.20;;;;;;5030202;28;20418;-55
2022/08/07 08:32:40;;;;;;;4.83;4.53;;;21.10;58.60;;;;;;5029725;28;21011;-56
2022/08/07 08:35:08;;;;;;;5.37;5.10;;;21.30;57.10;;;;;;5028846;28;20449;-52
2022/08/07 08:37:36;;;;;;;4.57;4.37;;;21.50;55.90;;;;;;5029873;28;20454;-52
2022/08/07 08:40:08;;;;;;;4.60;4.30;;;21.60;56.20;;;;;;5029774;28;20431;-53
2022/08/07 08:42:48;;;;;;;4.73;4.33;;;21.70;54.30;;;;;;5029891;28;20883;-55
2022/08/07 08:45:32;;;;;;;5.00;4.70;;;22.00;51.60;;;;;;5028379;28;20813;-56
2022/08/07 08:48:07;;;;;;;5.10;4.80;;;22.30;50.10;;;;;;5028818;28;20445;-52
2022/08/07 08:50:49;;;;;;;4.70;4.40;;;22.70;47.90;;;;;;5029398;28;20518;-58
2022/08/07 08:53:45;;;;;;;4.40;4.20;;;23.00;48.20;;;;;;5028781;28;20427;-53
2022/08/07 08:56:19;;;;;;;5.00;4.70;;;23.30;45.30;;;;;;5029569;28;20433;-53
2022/08/07 08:58:58;;;;;;;4.97;4.70;;;23.60;43.20;;;;;;5028729;28;20474;-53
2022/08/07 09:01:41;;;;;;;5.27;4.97;;;23.80;42.80;;;;;;5029506;28;20500;-51
2022/08/07 09:04:14;;;;;;;3.97;3.77;;;24.10;41.60;;;;;;5028411;28;20908;-53
2022/08/07 09:07:02;;;;;;;4.00;3.70;;;24.60;40.80;;;;;;5029321;28;20413;-52
2022/08/07 09:09:39;;;;;;;3.63;3.40;;;25.10;39.80;;;;;;5026896;28;20450;-55
2022/08/07 09:12:33;;;;;;;4.67;4.47;;;25.80;38.50;;;;;;5029378;28;20962;-54
2022/08/07 09:15:03;;;;;;;4.43;4.13;;;26.20;33.70;;;;;;5016521;28;20479;-53
2022/08/07 09:17:52;;;;;;;4.60;4.40;;;26.70;33.50;;;;;;5029217;28;21003;-55
2022/08/07 09:20:46;;;;;;;4.20;4.00;;;27.50;31.80;;;;;;5029228;28;21096;-53
2022/08/07 09:23:48;;;;;;;4.00;3.80;;;28.00;28.80;;;;;;5028558;28;20519;-52
2022/08/07 09:26:35;;;;;;;4.53;4.33;;;28.40;29.50;;;;;;5029095;28;20417;-53
2022/08/07 09:29:30;;;;;;;4.40;4.20;;;28.90;27.20;;;;;;5028671;28;20414;-56
2022/08/07 09:32:06;;;;;;;4.50;4.30;;;29.40;26.50;;;;;;5018404;28;20534;-55
2022/08/07 09:34:44;;;;;;;4.67;4.47;;;29.80;26.00;;;;;;5027992;28;20919;-57
2022/08/07 09:37:24;;;;;;;4.53;4.33;;;30.30;24.80;;;;;;5028755;28;20460;-55
2022/08/07 09:40:20;;;;;;;4.00;3.80;;;30.60;23.70;;;;;;5028155;28;20406;-56
2022/08/07 09:42:59;;;;;;;4.37;4.27;;;31.20;22.80;;;;;;5028998;28;20417;-55
2022/08/07 09:45:42;;;;;;;4.53;4.33;;;31.80;20.80;;;;;;5027651;28;20425;-54
2022/08/07 09:48:40;;;;;;;4.80;4.37;;;31.90;20.90;;;;;;5028839;28;20817;-56
2022/08/07 09:51:43;;;;;;;4.23;4.13;;;31.30;21.20;;;;;;5026108;28;20428;-54
2022/08/07 09:54:18;;;;;;;4.70;4.50;;;30.10;21.60;;;;;;5024140;28;20495;-54
2022/08/07 09:57:03;;;;;;;4.03;3.93;;;30.30;22.50;;;;;;5028859;28;20931;-54
2022/08/07 09:59:41;;;;;;;4.60;4.37;;;30.80;22.50;;;;;;5030630;28;20479;-56
2022/08/07 10:02:24;;;;;;;4.70;4.50;;;31.70;20.40;;;;;;5032707;28;20588;-59
2022/08/07 10:05:29;;;;;;;4.40;4.20;;;32.60;18.80;;;;;;5031484;28;20417;-57
2022/08/07 10:07:54;;;;;;;5.00;4.30;;;32.60;19.20;;;;;;5032528;28;20486;-55
2022/08/07 10:10:47;;;;;;;4.67;4.47;;;32.80;18.70;;;;;;5031755;28;20421;-56
2022/08/07 10:13:31;;;;;;;3.90;3.70;;;33.50;17.90;;;;;;5032559;28;20318;-58
2022/08/07 10:16:02;;;;;;;4.30;4.10;;;33.50;16.70;;;;;;5019212;28;20476;-56
2022/08/07 10:19:06;;;;;;;3.90;3.80;;;33.10;17.00;;;;;;5032033;28;20472;-59
2022/08/07 10:21:59;;;;;;;4.00;3.83;;;33.50;16.30;;;;;;5032006;28;20421;-55
2022/08/07 10:24:49;;;;;;;3.80;3.70;;;33.30;17.00;;;;;;5032053;28;20567;-56
2022/08/07 10:27:44;;;;;;;4.27;4.07;;;33.60;17.10;;;;;;5021820;28;20471;-58
2022/08/07 10:30:15;;;;;;;3.77;3.67;;;34.00;17.40;;;;;;5032136;28;20931;-53
2022/08/07 10:33:21;;;;;;;3.60;3.50;;;34.90;16.40;;;;;;5031867;28;20492;-57
2022/08/07 10:36:18;;;;;;;4.43;4.23;;;35.20;16.40;;;;;;5030955;28;20409;-57
2022/08/07 10:39:36;;;;;;;4.37;4.10;;;35.60;15.30;;;;;;5022394;28;20499;-55
2022/08/07 10:42:04;;;;;;;4.17;4.07;;;35.00;15.00;;;;;;4989898;28;20535;-56
2022/08/07 10:44:37;;;;;;;4.17;3.97;;;33.70;16.70;;;;;;5027745;28;20421;-56
2022/08/07 10:47:15;;;;;;;4.53;4.17;;;33.70;17.00;;;;;;5032065;28;20827;-55
2022/08/07 10:49:49;;;;;;;4.00;3.90;;;33.70;15.90;;;;;;5032126;28;20422;-57
2022/08/07 10:52:24;;;;;;;4.00;3.83;;;34.50;15.70;;;;;;5031239;28;20442;-56
2022/08/07 10:55:08;;;;;;;3.70;3.60;;;35.40;14.30;;;;;;5031861;28;20934;-55
2022/08/07 10:58:00;;;;;;;4.27;4.07;;;35.90;13.60;;;;;;5031627;28;20557;-56
2022/08/07 11:00:33;;;;;;;3.93;3.63;;;35.70;13.30;;;;;;5031226;28;20900;-54
2022/08/07 11:03:11;;;;;;;4.40;4.20;;;35.40;13.10;;;;;;5031727;28;20410;-54
2022/08/07 11:05:43;;;;;;;4.47;4.27;;;35.10;14.70;;;;;;5031557;28;20424;-55
2022/08/07 11:08:17;;;;;;;4.90;4.70;;;35.90;13.90;;;;;;5031297;28;20472;-57
2022/08/07 11:11:06;;;;;;;3.83;3.63;;;36.10;12.60;;;;;;5030654;28;21175;-56
2022/08/07 11:13:40;;;;;;;4.20;4.00;;;36.60;13.60;;;;;;5031699;28;20410;-56
2022/08/07 11:16:25;;;;;;;4.00;3.90;;;36.80;13.70;;;;;;5031605;28;20467;-53
2022/08/07 11:19:00;;;;;;;4.27;4.07;;;37.60;12.70;;;;;;5031785;28;20413;-56
2022/08/07 11:21:44;;;;;;;4.53;4.30;;;37.80;12.00;;;;;;5030778;28;20516;-56
2022/08/07 11:24:19;;;;;;;4.40;4.20;;;37.70;11.20;;;;;;5019028;28;20503;-58
2022/08/07 11:27:08;;;;;;;4.03;3.83;;;37.60;11.40;;;;;;5031216;28;20413;-56
2022/08/07 11:29:48;;;;;;;4.10;3.90;;;37.50;11.10;;;;;;5031081;28;20509;-55
2022/08/07 11:32:19;;;;;;;4.20;4.10;;;37.50;11.50;;;;;;5031099;28;20599;-56
2022/08/07 11:35:21;;;;;;;4.07;3.87;;;37.80;11.40;;;;;;5030181;28;20477;-57
2022/08/07 11:38:11;;;;;;;4.30;4.10;;;38.10;11.30;;;;;;4999163;28;20441;-56
2022/08/07 11:40:40;;;;;;;4.60;4.40;;;37.70;11.70;;;;;;5019732;28;20425;-57
2022/08/07 11:43:27;;;;;;;4.30;4.20;;;37.50;11.70;;;;;;5030095;28;20441;-58
2022/08/07 11:46:08;;;;;;;4.30;4.10;;;37.70;11.80;;;;;;5029922;28;20943;-58
2022/08/07 11:48:45;;;;;;;4.50;4.30;;;37.20;12.00;;;;;;5018047;28;20521;-57
2022/08/07 11:51:30;;;;;;;4.47;4.27;;;36.80;11.70;;;;;;5028047;28;20436;-57
2022/08/07 11:54:34;;;;;;;4.60;4.40;;;35.60;10.90;;;;;;5027327;28;20442;-58
2022/08/07 11:57:06;;;;;;;4.70;4.30;;;34.40;13.10;;;;;;5023381;28;20912;-56
2022/08/07 12:00:05;;;;;;;4.33;4.13;;;34.00;13.80;;;;;;5037597;28;20425;-57
2022/08/07 12:02:54;;;;;;;4.40;4.07;;;33.40;13.20;;;;;;5023253;28;20852;-54
2022/08/07 12:05:26;;;;;;;4.70;4.50;;;32.60;14.20;;;;;;5024962;28;20778;-56
2022/08/07 12:08:03;;;;;;;4.63;4.43;;;32.10;15.20;;;;;;5025041;28;20457;-54
2022/08/07 12:10:43;;;;;;;4.43;4.30;;;31.80;16.10;;;;;;5025499;28;20483;-54
2022/08/07 12:13:21;;;;;;;4.53;4.23;;;31.50;16.60;;;;;;5022024;28;20413;-53
2022/08/07 12:15:51;;;;;;;5.10;4.90;;;31.30;16.20;;;;;;5022534;28;20471;-52
2022/08/07 12:18:29;;;;;;;4.83;4.63;;;31.20;17.00;;;;;;5022139;28;20462;-57
2022/08/07 12:21:14;;;;;;;6.23;4.47;;;31.00;16.70;;;;;;5022650;28;20441;-55
2022/08/07 12:24:06;;;;;;;5.17;4.87;;;30.90;17.00;;;;;;5000784;28;20449;-52
2022/08/07 12:26:45;;;;;;;4.30;4.20;;;30.80;17.00;;;;;;5025853;28;20441;-56
2022/08/07 12:29:26;;;;;;;4.90;4.70;;;30.60;16.30;;;;;;5021172;28;20409;-55
2022/08/07 12:32:10;;;;;;;4.70;4.50;;;30.10;17.30;;;;;;5026258;28;20467;-54
2022/08/07 12:34:38;;;;;;;4.50;4.30;;;29.80;17.40;;;;;;5029166;28;20418;-54
2022/08/07 12:37:05;;;;;;;4.47;4.27;;;29.70;18.30;;;;;;5027716;28;20465;-54
2022/08/07 12:39:34;;;;;;;4.77;4.57;;;29.80;18.50;;;;;;5028745;28;20509;-54
2022/08/07 12:42:01;;;;;;;4.47;4.27;;;30.00;18.40;;;;;;5029463;28;20923;-54
2022/08/07 12:44:28;;;;;;;4.70;4.50;;;29.90;17.80;;;;;;5029804;28;20416;-54
2022/08/07 12:47:19;;;;;;;4.30;4.10;;;30.10;18.20;;;;;;5026102;28;20959;-57
2022/08/07 12:49:51;;;;;;;4.70;4.50;;;30.30;18.00;;;;;;5029871;28;20428;-51
2022/08/07 12:52:35;;;;;;;4.70;4.50;;;30.50;18.10;;;;;;5029308;28;20538;-54
2022/08/07 12:55:10;;;;;;;4.83;4.53;;;30.50;17.10;;;;;;5029565;28;20405;-56
2022/08/07 12:57:39;;;;;;;4.27;4.07;;;30.70;16.90;;;;;;5028662;28;20472;-51
2022/08/07 13:00:08;;;;;;;4.90;4.70;;;30.80;17.20;;;;;;5028827;28;20855;-56
2022/08/07 13:03:13;;;;;;;4.53;4.33;;;31.10;16.70;;;;;;5024738;28;20421;-55
2022/08/07 13:06:17;;;;;;;4.30;4.20;;;31.10;16.20;;;;;;5015360;28;20970;-54
2022/08/07 13:09:07;;;;;;;4.60;4.40;;;31.40;16.10;;;;;;5010989;28;20469;-57
2022/08/07 13:11:46;;;;;;;4.83;4.63;;;31.60;16.00;;;;;;5027520;28;20440;-57
2022/08/07 13:14:26;;;;;;;4.70;4.40;;;31.90;14.80;;;;;;5027666;28;20838;-56
2022/08/07 13:17:11;;;;;;;4.50;4.30;;;31.90;15.90;;;;;;5024228;28;21271;-56
2022/08/07 13:19:55;;;;;;;4.50;4.30;;;32.50;15.20;;;;;;5021391;28;20517;-54
2022/08/07 13:22:30;;;;;;;4.70;4.50;;;33.10;15.10;;;;;;5013436;28;20505;-53
2022/08/07 13:25:01;;;;;;;4.67;4.37;;;33.70;14.60;;;;;;5028665;28;20456;-56